sensor_id;sensor_type;location;lat;lon;timestamp;temperature;humidity
15184;DHT22;7693;49.266;7.104;2023-04-25T04:34:31;7.30;99.90
15184;DHT22;7693;49.266;7.104;2023-04-25T04:36:57;7.30;99.90
15184;DHT22;7693;49.266;7.104;2023-04-25T04:39:22;7.30;99.90
15184;DHT22;7693;49.266;7.104;2023-04-25T04:41:48;7.40;99.90
15184;DHT22;7693;49.266;7.104;2023-04-25T04:44:14;7.40;99.90
15184;DHT22;7693;49.266;7.104;2023-04-25T04:46:40;7.40;99.90
15184;DHT22;7693;49.266;7.104;2023-04-25T04:49:09;7.50;99.90
15184;DHT22;7693;49.266;7.104;2023-04-25T04:51:34;7.50;99.90
15184;DHT22;7693;49.266;7.104;2023-04-25T04:54:01;7.50;99.90
15184;DHT22;7693;49.266;7.104;2023-04-25T04:56:28;7.50;99.90
15184;DHT22;7693;49.266;7.104;2023-04-25T04:58:56;7.50;99.90
15184;DHT22;7693;49.266;7.104;2023-04-25T05:01:22;7.60;99.90
15184;DHT22;7693;49.266;7.104;2023-04-25T05:03:48;7.60;99.90
15184;DHT22;7693;49.266;7.104;2023-04-25T05:06:14;7.60;99.90
15184;DHT22;7693;49.266;7.104;2023-04-25T05:08:40;7.60;99.90
15184;DHT22;7693;49.266;7.104;2023-04-25T05:11:05;7.60;99.90
15184;DHT22;7693;49.266;7.104;2023-04-25T05:13:31;7.60;99.90
15184;DHT22;7693;49.266;7.104;2023-04-25T05:15:56;7.70;99.90
15184;DHT22;7693;49.266;7.104;2023-04-25T05:18:22;7.70;99.90
15184;DHT22;7693;49.266;7.104;2023-04-25T05:20:48;7.70;99.90
15184;DHT22;7693;49.266;7.104;2023-04-25T05:23:13;7.70;99.90
15184;DHT22;7693;49.266;7.104;2023-04-25T05:25:39;7.70;99.90
15184;DHT22;7693;49.266;7.104;2023-04-25T05:28:04;7.70;99.90
15184;DHT22;7693;49.266;7.104;2023-04-25T05:30:31;7.70;99.90
15184;DHT22;7693;49.266;7.104;2023-04-25T05:32:56;7.70;99.90
15184;DHT22;7693;49.266;7.104;2023-04-25T05:35:22;7.70;99.90
15184;DHT22;7693;49.266;7.104;2023-04-25T05:37:47;7.70;99.90
15184;DHT22;7693;49.266;7.104;2023-04-25T05:40:13;7.60;99.90
15184;DHT22;7693;49.266;7.104;2023-04-25T05:42:39;7.60;99.90
15184;DHT22;7693;49.266;7.104;2023-04-25T05:45:05;7.70;99.90
15184;DHT22;7693;49.266;7.104;2023-04-25T05:47:31;7.70;99.90
15184;DHT22;7693;49.266;7.104;2023-04-25T05:49:56;7.70;99.90
15184;DHT22;7693;49.266;7.104;2023-04-25T05:52:22;7.70;99.90
15184;DHT22;7693;49.266;7.104;2023-04-25T05:54:48;7.70;99.90
15184;DHT22;7693;49.266;7.104;2023-04-25T05:57:24;7.70;99.90
15184;DHT22;7693;49.266;7.104;2023-04-25T05:59:51;7.70;99.90
15184;DHT22;7693;49.266;7.104;2023-04-25T06:02:17;7.70;99.90
15184;DHT22;7693;49.266;7.104;2023-04-25T06:04:43;7.70;99.90
15184;DHT22;7693;49.266;7.104;2023-04-25T06:07:08;7.80;99.90
15184;DHT22;7693;49.266;7.104;2023-04-25T06:09:34;7.80;99.90
15184;DHT22;7693;49.266;7.104;2023-04-25T06:12:00;7.80;99.90
15184;DHT22;7693;49.266;7.104;2023-04-25T06:14:26;7.80;99.90
15184;DHT22;7693;49.266;7.104;2023-04-25T06:16:52;7.80;99.90
15184;DHT22;7693;49.266;7.104;2023-04-25T06:19:17;7.80;99.90
15184;DHT22;7693;49.266;7.104;2023-04-25T06:21:44;7.80;99.90
15184;DHT22;7693;49.266;7.104;2023-04-25T06:24:09;7.80;99.90
15184;DHT22;7693;49.266;7.104;2023-04-25T06:26:35;7.90;99.90
15184;DHT22;7693;49.266;7.104;2023-04-25T06:29:00;7.90;99.90
15184;DHT22;7693;49.266;7.104;2023-04-25T06:31:26;7.90;99.90
15184;DHT22;7693;49.266;7.104;2023-04-25T06:33:52;7.90;99.90
15184;DHT22;7693;49.266;7.104;2023-04-25T06:36:20;7.90;99.90
15184;DHT22;7693;49.266;7.104;2023-04-25T06:38:50;7.90;99.90
15184;DHT22;7693;49.266;7.104;2023-04-25T06:41:16;7.90;99.90
15184;DHT22;7693;49.266;7.104;2023-04-25T06:43:41;7.90;99.90
15184;DHT22;7693;49.266;7.104;2023-04-25T06:46:07;7.90;99.90
15184;DHT22;7693;49.266;7.104;2023-04-25T06:48:32;7.90;99.90
15184;DHT22;7693;49.266;7.104;2023-04-25T06:50:58;7.90;99.90
15184;DHT22;7693;49.266;7.104;2023-04-25T06:53:24;7.90;99.90
15184;DHT22;7693;49.266;7.104;2023-04-25T06:55:49;8.00;99.90
15184;DHT22;7693;49.266;7.104;2023-04-25T06:58:15;8.00;99.90
15184;DHT22;7693;49.266;7.104;2023-04-25T07:00:41;8.00;99.90
15184;DHT22;7693;49.266;7.104;2023-04-25T07:03:07;8.00;99.90
15184;DHT22;7693;49.266;7.104;2023-04-25T07:05:32;8.00;99.90
15184;DHT22;7693;49.266;7.104;2023-04-25T07:07:58;8.00;99.90
15184;DHT22;7693;49.266;7.104;2023-04-25T07:10:23;8.00;99.90
15184;DHT22;7693;49.266;7.104;2023-04-25T07:12:49;8.00;99.90
15184;DHT22;7693;49.266;7.104;2023-04-25T07:15:14;8.10;99.90
15184;DHT22;7693;49.266;7.104;2023-04-25T07:17:40;8.10;99.90
15184;DHT22;7693;49.266;7.104;2023-04-25T07:20:06;8.20;99.90
15184;DHT22;7693;49.266;7.104;2023-04-25T07:22:33;8.30;99.90
15184;DHT22;7693;49.266;7.104;2023-04-25T07:24:58;8.40;99.90
15184;DHT22;7693;49.266;7.104;2023-04-25T07:27:24;8.40;99.90
15184;DHT22;7693;49.266;7.104;2023-04-25T07:29:49;8.50;99.90
15184;DHT22;7693;49.266;7.104;2023-04-25T07:32:15;8.70;99.90
15184;DHT22;7693;49.266;7.104;2023-04-25T07:34:41;8.70;99.90
15184;DHT22;7693;49.266;7.104;2023-04-25T07:37:07;8.80;99.90
15184;DHT22;7693;49.266;7.104;2023-04-25T07:39:32;8.90;99.90
15184;DHT22;7693;49.266;7.104;2023-04-25T07:41:58;9.00;99.90
15184;DHT22;7693;49.266;7.104;2023-04-25T07:44:27;9.10;99.90
15184;DHT22;7693;49.266;7.104;2023-04-25T07:46:53;9.10;99.90
15184;DHT22;7693;49.266;7.104;2023-04-25T07:49:18;9.10;99.90
15184;DHT22;7693;49.266;7.104;2023-04-25T07:51:44;9.20;99.90
15184;DHT22;7693;49.266;7.104;2023-04-25T07:54:14;9.30;99.90
15184;DHT22;7693;49.266;7.104;2023-04-25T07:56:40;9.40;99.90
15184;DHT22;7693;49.266;7.104;2023-04-25T07:59:06;9.50;99.90
15184;DHT22;7693;49.266;7.104;2023-04-25T08:01:33;9.50;99.90
15184;DHT22;7693;49.266;7.104;2023-04-25T08:03:59;9.50;99.90
15184;DHT22;7693;49.266;7.104;2023-04-25T08:06:25;9.50;99.90
15184;DHT22;7693;49.266;7.104;2023-04-25T08:08:51;9.50;99.90
15184;DHT22;7693;49.266;7.104;2023-04-25T08:11:16;9.50;99.90
15184;DHT22;7693;49.266;7.104;2023-04-25T08:13:42;9.40;99.90
15184;DHT22;7693;49.266;7.104;2023-04-25T08:16:07;9.40;99.90
15184;DHT22;7693;49.266;7.104;2023-04-25T08:18:33;9.40;99.90
15184;DHT22;7693;49.266;7.104;2023-04-25T08:20:59;9.40;99.90
15184;DHT22;7693;49.266;7.104;2023-04-25T08:23:24;9.50;99.90
15184;DHT22;7693;49.266;7.104;2023-04-25T08:25:50;9.50;99.90
15184;DHT22;7693;49.266;7.104;2023-04-25T08:28:16;9.40;99.90
15184;DHT22;7693;49.266;7.104;2023-04-25T08:30:42;9.50;99.90
15184;DHT22;7693;49.266;7.104;2023-04-25T08:33:07;9.50;99.90
15184;DHT22;7693;49.266;7.104;2023-04-25T08:35:33;9.60;99.90
15184;DHT22;7693;49.266;7.104;2023-04-25T08:37:59;9.70;99.90
15184;DHT22;7693;49.266;7.104;2023-04-25T08:40:27;9.80;99.90
15184;DHT22;7693;49.266;7.104;2023-04-25T08:42:58;9.90;99.90
15184;DHT22;7693;49.266;7.104;2023-04-25T08:45:27;10.00;99.90
15184;DHT22;7693;49.266;7.104;2023-04-25T08:47:54;10.10;99.90
15184;DHT22;7693;49.266;7.104;2023-04-25T08:50:22;10.10;99.90
15184;DHT22;7693;49.266;7.104;2023-04-25T08:52:50;10.20;99.90
15184;DHT22;7693;49.266;7.104;2023-04-25T08:55:18;10.20;99.90
15184;DHT22;7693;49.266;7.104;2023-04-25T08:57:44;10.30;99.90
15184;DHT22;7693;49.266;7.104;2023-04-25T09:00:11;10.40;99.90
15184;DHT22;7693;49.266;7.104;2023-04-25T09:02:39;10.40;99.90
15184;DHT22;7693;49.266;7.104;2023-04-25T09:05:05;10.40;99.90
15184;DHT22;7693;49.266;7.104;2023-04-25T09:07:32;10.40;99.90
15184;DHT22;7693;49.266;7.104;2023-04-25T09:09:58;10.50;99.90
15184;DHT22;7693;49.266;7.104;2023-04-25T09:12:27;10.50;99.90
15184;DHT22;7693;49.266;7.104;2023-04-25T09:15:06;10.50;99.90
15184;DHT22;7693;49.266;7.104;2023-04-25T09:17:32;10.60;99.90
15184;DHT22;7693;49.266;7.104;2023-04-25T09:22:34;10.80;99.90
15184;DHT22;7693;49.266;7.104;2023-04-25T09:25:11;10.70;99.90
15184;DHT22;7693;49.266;7.104;2023-04-25T09:27:49;10.80;99.90
15184;DHT22;7693;49.266;7.104;2023-04-25T09:30:16;10.70;99.90
15184;DHT22;7693;49.266;7.104;2023-04-25T09:32:43;10.50;99.90
15184;DHT22;7693;49.266;7.104;2023-04-25T09:35:09;10.30;99.90
15184;DHT22;7693;49.266;7.104;2023-04-25T09:37:35;10.10;99.90
15184;DHT22;7693;49.266;7.104;2023-04-25T09:40:05;9.90;99.90
15184;DHT22;7693;49.266;7.104;2023-04-25T09:42:31;9.80;99.90
15184;DHT22;7693;49.266;7.104;2023-04-25T09:44:58;9.70;99.90
15184;DHT22;7693;49.266;7.104;2023-04-25T09:47:25;9.60;99.90
15184;DHT22;7693;49.266;7.104;2023-04-25T09:49:52;9.50;99.90
15184;DHT22;7693;49.266;7.104;2023-04-25T09:52:22;9.50;99.90
15184;DHT22;7693;49.266;7.104;2023-04-25T09:54:49;9.40;99.90
15184;DHT22;7693;49.266;7.104;2023-04-25T09:57:20;9.40;99.90
15184;DHT22;7693;49.266;7.104;2023-04-25T09:59:47;9.40;99.90
15184;DHT22;7693;49.266;7.104;2023-04-25T10:02:16;9.40;99.90
15184;DHT22;7693;49.266;7.104;2023-04-25T10:04:45;9.50;99.90
15184;DHT22;7693;49.266;7.104;2023-04-25T12:12:17;11.50;99.90
15184;DHT22;7693;49.266;7.104;2023-04-25T12:14:46;11.60;99.90
15184;DHT22;7693;49.266;7.104;2023-04-25T12:17:13;11.60;99.90
15184;DHT22;7693;49.266;7.104;2023-04-25T12:19:39;11.50;99.90
15184;DHT22;7693;49.266;7.104;2023-04-25T12:22:19;11.50;99.90
15184;DHT22;7693;49.266;7.104;2023-04-25T12:24:46;11.50;99.90
15184;DHT22;7693;49.266;7.104;2023-04-25T12:27:14;11.50;99.90
15184;DHT22;7693;49.266;7.104;2023-04-25T12:29:53;11.50;99.90
15184;DHT22;7693;49.266;7.104;2023-04-25T12:32:19;11.60;99.90
15184;DHT22;7693;49.266;7.104;2023-04-25T12:34:44;11.60;99.90
15184;DHT22;7693;49.266;7.104;2023-04-25T12:37:10;11.70;99.90
15184;DHT22;7693;49.266;7.104;2023-04-25T12:39:36;11.80;99.90
15184;DHT22;7693;49.266;7.104;2023-04-25T12:42:02;11.90;99.90
15184;DHT22;7693;49.266;7.104;2023-04-25T12:44:28;12.00;99.90
15184;DHT22;7693;49.266;7.104;2023-04-25T12:46:54;12.10;99.90
15184;DHT22;7693;49.266;7.104;2023-04-25T12:49:20;12.20;99.90
15184;DHT22;7693;49.266;7.104;2023-04-25T12:51:46;12.20;99.90
15184;DHT22;7693;49.266;7.104;2023-04-25T12:54:12;12.30;99.90
15184;DHT22;7693;49.266;7.104;2023-04-25T12:56:38;12.30;99.90
15184;DHT22;7693;49.266;7.104;2023-04-25T12:59:03;12.30;99.90
15184;DHT22;7693;49.266;7.104;2023-04-25T13:01:29;12.30;99.90
15184;DHT22;7693;49.266;7.104;2023-04-25T13:03:55;12.10;99.90
15184;DHT22;7693;49.266;7.104;2023-04-25T13:06:23;12.10;99.90
15184;DHT22;7693;49.266;7.104;2023-04-25T13:08:49;11.90;99.90
15184;DHT22;7693;49.266;7.104;2023-04-25T13:11:15;11.80;99.90
15184;DHT22;7693;49.266;7.104;2023-04-25T13:13:41;11.70;99.90
15184;DHT22;7693;49.266;7.104;2023-04-25T13:16:07;11.60;99.90
15184;DHT22;7693;49.266;7.104;2023-04-25T13:18:34;11.40;99.90
15184;DHT22;7693;49.266;7.104;2023-04-25T13:21:00;11.30;99.90
15184;DHT22;7693;49.266;7.104;2023-04-25T13:23:28;11.30;99.90
15184;DHT22;7693;49.266;7.104;2023-04-25T13:25:54;11.40;99.90
15184;DHT22;7693;49.266;7.104;2023-04-25T13:28:20;11.40;99.90
15184;DHT22;7693;49.266;7.104;2023-04-25T13:30:46;11.50;99.90
15184;DHT22;7693;49.266;7.104;2023-04-25T13:33:13;11.60;99.90
15184;DHT22;7693;49.266;7.104;2023-04-25T13:35:39;11.70;99.90
15184;DHT22;7693;49.266;7.104;2023-04-25T13:38:05;11.70;99.90
15184;DHT22;7693;49.266;7.104;2023-04-25T13:40:34;11.70;99.90
15184;DHT22;7693;49.266;7.104;2023-04-25T13:43:01;11.70;99.90
15184;DHT22;7693;49.266;7.104;2023-04-25T13:45:27;11.60;99.90
15184;DHT22;7693;49.266;7.104;2023-04-25T13:47:52;11.60;99.90
15184;DHT22;7693;49.266;7.104;2023-04-25T13:50:18;11.50;99.90
15184;DHT22;7693;49.266;7.104;2023-04-25T13:52:44;11.50;99.90
15184;DHT22;7693;49.266;7.104;2023-04-25T13:55:10;11.50;99.90
15184;DHT22;7693;49.266;7.104;2023-04-25T13:57:37;11.60;99.90
15184;DHT22;7693;49.266;7.104;2023-04-25T14:00:04;11.60;99.90
15184;DHT22;7693;49.266;7.104;2023-04-25T14:02:34;11.70;99.90
15184;DHT22;7693;49.266;7.104;2023-04-25T14:05:00;11.70;99.90
15184;DHT22;7693;49.266;7.104;2023-04-25T14:07:26;11.80;99.90
15184;DHT22;7693;49.266;7.104;2023-04-25T14:09:51;11.80;99.90
15184;DHT22;7693;49.266;7.104;2023-04-25T14:12:17;11.90;99.90
15184;DHT22;7693;49.266;7.104;2023-04-25T14:14:43;11.90;99.90
15184;DHT22;7693;49.266;7.104;2023-04-25T14:17:09;12.00;99.90
15184;DHT22;7693;49.266;7.104;2023-04-25T14:19:34;12.10;99.90
15184;DHT22;7693;49.266;7.104;2023-04-25T14:22:00;12.20;99.90
15184;DHT22;7693;49.266;7.104;2023-04-25T14:24:25;12.30;99.90
15184;DHT22;7693;49.266;7.104;2023-04-25T14:26:51;12.30;99.90
15184;DHT22;7693;49.266;7.104;2023-04-25T14:29:17;12.10;99.90
15184;DHT22;7693;49.266;7.104;2023-04-25T14:31:42;12.00;99.90
15184;DHT22;7693;49.266;7.104;2023-04-25T14:34:08;11.90;99.90
15184;DHT22;7693;49.266;7.104;2023-04-25T14:36:36;11.90;99.90
15184;DHT22;7693;49.266;7.104;2023-04-25T14:39:02;12.00;99.90
15184;DHT22;7693;49.266;7.104;2023-04-25T14:41:28;12.00;99.90
15184;DHT22;7693;49.266;7.104;2023-04-25T14:43:53;12.10;99.90
15184;DHT22;7693;49.266;7.104;2023-04-25T14:46:20;12.20;99.90
15184;DHT22;7693;49.266;7.104;2023-04-25T14:48:47;12.20;99.90
15184;DHT22;7693;49.266;7.104;2023-04-25T14:51:13;12.20;99.90
15184;DHT22;7693;49.266;7.104;2023-04-25T14:53:40;12.10;99.90
15184;DHT22;7693;49.266;7.104;2023-04-25T14:56:06;12.20;99.90
15184;DHT22;7693;49.266;7.104;2023-04-25T14:58:32;12.20;99.90
15184;DHT22;7693;49.266;7.104;2023-04-25T15:01:01;12.10;99.90
15184;DHT22;7693;49.266;7.104;2023-04-25T15:03:26;12.20;99.90
15184;DHT22;7693;49.266;7.104;2023-04-25T15:05:54;12.10;99.90
15184;DHT22;7693;49.266;7.104;2023-04-25T15:08:20;12.10;99.90
15184;DHT22;7693;49.266;7.104;2023-04-25T15:10:46;12.10;99.90
15184;DHT22;7693;49.266;7.104;2023-04-25T15:13:11;12.10;99.90
15184;DHT22;7693;49.266;7.104;2023-04-25T15:15:37;12.00;99.90
15184;DHT22;7693;49.266;7.104;2023-04-25T15:18:03;12.00;99.90
15184;DHT22;7693;49.266;7.104;2023-04-25T15:20:28;12.00;99.90
15184;DHT22;7693;49.266;7.104;2023-04-25T15:22:55;12.00;99.90
15184;DHT22;7693;49.266;7.104;2023-04-25T15:25:20;12.10;99.90
15184;DHT22;7693;49.266;7.104;2023-04-25T15:27:46;12.10;99.90
15184;DHT22;7693;49.266;7.104;2023-04-25T15:30:16;12.10;99.90
15184;DHT22;7693;49.266;7.104;2023-04-25T15:32:46;12.10;99.90
15184;DHT22;7693;49.266;7.104;2023-04-25T15:35:12;12.10;99.90
15184;DHT22;7693;49.266;7.104;2023-04-25T15:37:38;12.10;99.90
15184;DHT22;7693;49.266;7.104;2023-04-25T15:40:13;12.20;99.90
15184;DHT22;7693;49.266;7.104;2023-04-25T15:42:40;12.30;99.90
15184;DHT22;7693;49.266;7.104;2023-04-25T15:45:07;12.40;99.90
15184;DHT22;7693;49.266;7.104;2023-04-25T15:47:35;12.70;99.90
15184;DHT22;7693;49.266;7.104;2023-04-25T15:50:01;12.80;99.90
15184;DHT22;7693;49.266;7.104;2023-04-25T15:52:27;12.80;99.90
15184;DHT22;7693;49.266;7.104;2023-04-25T15:54:53;12.60;99.90
15184;DHT22;7693;49.266;7.104;2023-04-25T15:57:19;12.60;99.90
15184;DHT22;7693;49.266;7.104;2023-04-25T15:59:45;12.50;99.90
15184;DHT22;7693;49.266;7.104;2023-04-25T16:02:12;12.40;99.90
15184;DHT22;7693;49.266;7.104;2023-04-25T16:04:38;12.30;99.90
15184;DHT22;7693;49.266;7.104;2023-04-25T16:07:04;12.20;99.90
15184;DHT22;7693;49.266;7.104;2023-04-25T16:09:30;12.10;99.90
15184;DHT22;7693;49.266;7.104;2023-04-25T16:11:56;12.00;99.90
15184;DHT22;7693;49.266;7.104;2023-04-25T16:14:22;11.90;99.90
15184;DHT22;7693;49.266;7.104;2023-04-25T16:16:47;11.80;99.90
15184;DHT22;7693;49.266;7.104;2023-04-25T16:19:13;11.70;99.90
15184;DHT22;7693;49.266;7.104;2023-04-25T16:21:38;11.70;99.90
15184;DHT22;7693;49.266;7.104;2023-04-25T16:24:04;11.60;99.90
15184;DHT22;7693;49.266;7.104;2023-04-25T16:26:30;11.60;99.90
15184;DHT22;7693;49.266;7.104;2023-04-25T16:28:55;11.60;99.90
15184;DHT22;7693;49.266;7.104;2023-04-25T16:31:21;11.60;99.90
15184;DHT22;7693;49.266;7.104;2023-04-25T16:33:47;11.60;99.90
15184;DHT22;7693;49.266;7.104;2023-04-25T16:36:12;11.70;99.90
15184;DHT22;7693;49.266;7.104;2023-04-25T16:38:38;11.70;99.90
15184;DHT22;7693;49.266;7.104;2023-04-25T16:41:05;11.60;99.90
15184;DHT22;7693;49.266;7.104;2023-04-25T16:43:31;11.60;99.90
15184;DHT22;7693;49.266;7.104;2023-04-25T16:45:57;11.50;99.90
15184;DHT22;7693;49.266;7.104;2023-04-25T16:48:22;11.40;99.90
15184;DHT22;7693;49.266;7.104;2023-04-25T16:50:50;11.40;99.90
15184;DHT22;7693;49.266;7.104;2023-04-25T16:53:16;11.30;99.90
15184;DHT22;7693;49.266;7.104;2023-04-25T16:55:42;11.30;99.90
15184;DHT22;7693;49.266;7.104;2023-04-25T16:58:08;11.20;99.90
15184;DHT22;7693;49.266;7.104;2023-04-25T17:00:39;11.30;99.90
15184;DHT22;7693;49.266;7.104;2023-04-25T17:03:06;11.30;99.90
15184;DHT22;7693;49.266;7.104;2023-04-25T17:05:35;11.30;99.90
15184;DHT22;7693;49.266;7.104;2023-04-25T17:08:01;11.30;99.90
15184;DHT22;7693;49.266;7.104;2023-04-25T17:10:27;11.20;99.90
15184;DHT22;7693;49.266;7.104;2023-04-25T17:12:53;11.20;99.90
15184;DHT22;7693;49.266;7.104;2023-04-25T17:15:19;11.20;99.90
15184;DHT22;7693;49.266;7.104;2023-04-25T17:17:45;11.10;99.90
15184;DHT22;7693;49.266;7.104;2023-04-25T17:20:10;11.10;99.90
15184;DHT22;7693;49.266;7.104;2023-04-25T17:22:38;11.10;99.90
15184;DHT22;7693;49.266;7.104;2023-04-25T17:25:05;11.00;99.90
15184;DHT22;7693;49.266;7.104;2023-04-25T17:27:31;11.00;99.90
15184;DHT22;7693;49.266;7.104;2023-04-25T17:29:57;11.00;99.90
15184;DHT22;7693;49.266;7.104;2023-04-25T17:32:23;10.90;99.90
15184;DHT22;7693;49.266;7.104;2023-04-25T17:34:48;10.90;99.90
15184;DHT22;7693;49.266;7.104;2023-04-25T17:37:14;10.90;99.90
15184;DHT22;7693;49.266;7.104;2023-04-25T17:39:44;10.80;99.90
15184;DHT22;7693;49.266;7.104;2023-04-25T17:42:10;10.90;99.90
15184;DHT22;7693;49.266;7.104;2023-04-25T17:44:37;10.80;99.90
15184;DHT22;7693;49.266;7.104;2023-04-25T17:47:03;10.80;99.90
15184;DHT22;7693;49.266;7.104;2023-04-25T17:49:31;10.80;99.90
15184;DHT22;7693;49.266;7.104;2023-04-25T17:51:57;10.80;99.90
15184;DHT22;7693;49.266;7.104;2023-04-25T17:54:23;10.70;99.90
15184;DHT22;7693;49.266;7.104;2023-04-25T17:56:49;10.80;99.90
15184;DHT22;7693;49.266;7.104;2023-04-25T17:59:15;10.70;99.90
15184;DHT22;7693;49.266;7.104;2023-04-25T18:01:41;10.70;99.90
15184;DHT22;7693;49.266;7.104;2023-04-25T18:04:06;10.70;99.90
15184;DHT22;7693;49.266;7.104;2023-04-25T18:06:33;10.70;99.90
15184;DHT22;7693;49.266;7.104;2023-04-25T18:08:59;10.70;99.90
15184;DHT22;7693;49.266;7.104;2023-04-25T18:11:27;10.60;99.90
15184;DHT22;7693;49.266;7.104;2023-04-25T18:13:53;10.60;99.90
15184;DHT22;7693;49.266;7.104;2023-04-25T18:16:19;10.60;99.90
15184;DHT22;7693;49.266;7.104;2023-04-25T18:18:46;10.50;99.90
15184;DHT22;7693;49.266;7.104;2023-04-25T18:21:19;10.50;99.90
15184;DHT22;7693;49.266;7.104;2023-04-25T18:23:45;10.50;99.90
15184;DHT22;7693;49.266;7.104;2023-04-25T18:26:11;10.50;99.90
15184;DHT22;7693;49.266;7.104;2023-04-25T18:28:37;10.50;99.90
15184;DHT22;7693;49.266;7.104;2023-04-25T18:31:02;10.40;99.90
15184;DHT22;7693;49.266;7.104;2023-04-25T18:33:29;10.40;99.90
15184;DHT22;7693;49.266;7.104;2023-04-25T18:35:55;10.40;99.90
15184;DHT22;7693;49.266;7.104;2023-04-25T18:38:23;10.40;99.90
15184;DHT22;7693;49.266;7.104;2023-04-25T18:40:49;10.30;99.90
15184;DHT22;7693;49.266;7.104;2023-04-25T18:43:15;10.30;99.90
15184;DHT22;7693;49.266;7.104;2023-04-25T18:45:40;10.30;99.90
15184;DHT22;7693;49.266;7.104;2023-04-25T18:48:06;10.30;99.90
15184;DHT22;7693;49.266;7.104;2023-04-25T18:50:32;10.30;99.90
15184;DHT22;7693;49.266;7.104;2023-04-25T18:52:58;10.20;99.90
15184;DHT22;7693;49.266;7.104;2023-04-25T18:55:25;10.20;99.90
15184;DHT22;7693;49.266;7.104;2023-04-25T18:57:50;10.20;99.90
15184;DHT22;7693;49.266;7.104;2023-04-25T19:00:16;10.20;99.90
15184;DHT22;7693;49.266;7.104;2023-04-25T19:02:41;10.10;99.90
15184;DHT22;7693;49.266;7.104;2023-04-25T19:05:07;10.10;99.90
15184;DHT22;7693;49.266;7.104;2023-04-25T19:07:35;10.00;99.90
15184;DHT22;7693;49.266;7.104;2023-04-25T19:10:02;10.00;99.90
15184;DHT22;7693;49.266;7.104;2023-04-25T19:12:28;9.90;99.90
15184;DHT22;7693;49.266;7.104;2023-04-25T19:14:54;9.90;99.90
15184;DHT22;7693;49.266;7.104;2023-04-25T19:17:20;9.90;99.90
15184;DHT22;7693;49.266;7.104;2023-04-25T19:19:46;9.80;99.90
15184;DHT22;7693;49.266;7.104;2023-04-25T19:22:12;9.80;99.90
15184;DHT22;7693;49.266;7.104;2023-04-25T19:24:38;9.80;99.90
15184;DHT22;7693;49.266;7.104;2023-04-25T19:27:04;9.80;99.90
15184;DHT22;7693;49.266;7.104;2023-04-25T19:29:30;9.80;99.90
15184;DHT22;7693;49.266;7.104;2023-04-25T19:31:57;9.70;99.90
15184;DHT22;7693;49.266;7.104;2023-04-25T19:34:24;9.70;99.90
15184;DHT22;7693;49.266;7.104;2023-04-25T19:36:50;9.70;99.90
15184;DHT22;7693;49.266;7.104;2023-04-25T19:39:18;9.70;99.90
15184;DHT22;7693;49.266;7.104;2023-04-25T19:41:45;9.70;99.90
15184;DHT22;7693;49.266;7.104;2023-04-25T19:44:10;9.70;99.90
15184;DHT22;7693;49.266;7.104;2023-04-25T19:46:36;9.70;99.90
15184;DHT22;7693;49.266;7.104;2023-04-25T19:49:03;9.60;99.90
15184;DHT22;7693;49.266;7.104;2023-04-25T19:51:30;9.60;99.90
15184;DHT22;7693;49.266;7.104;2023-04-25T19:53:56;9.60;99.90
15184;DHT22;7693;49.266;7.104;2023-04-25T19:56:22;9.60;99.90
15184;DHT22;7693;49.266;7.104;2023-04-25T19:58:48;9.50;99.90
15184;DHT22;7693;49.266;7.104;2023-04-25T20:01:14;9.50;99.90
15184;DHT22;7693;49.266;7.104;2023-04-25T20:03:41;9.50;99.90
15184;DHT22;7693;49.266;7.104;2023-04-25T20:06:07;9.50;99.90
15184;DHT22;7693;49.266;7.104;2023-04-25T20:08:34;9.40;99.90
15184;DHT22;7693;49.266;7.104;2023-04-25T20:11:00;9.40;99.90
15184;DHT22;7693;49.266;7.104;2023-04-25T20:13:26;9.30;99.90
15184;DHT22;7693;49.266;7.104;2023-04-25T20:15:51;9.30;99.90
15184;DHT22;7693;49.266;7.104;2023-04-25T20:18:17;9.30;99.90
15184;DHT22;7693;49.266;7.104;2023-04-25T20:20:43;9.20;99.90
15184;DHT22;7693;49.266;7.104;2023-04-25T20:23:08;9.20;99.90
15184;DHT22;7693;49.266;7.104;2023-04-25T20:25:34;9.10;99.90
15184;DHT22;7693;49.266;7.104;2023-04-25T20:27:59;9.10;99.90
15184;DHT22;7693;49.266;7.104;2023-04-25T20:30:25;9.00;99.90
15184;DHT22;7693;49.266;7.104;2023-04-25T20:32:51;8.90;99.90
15184;DHT22;7693;49.266;7.104;2023-04-25T20:35:16;8.80;99.90
15184;DHT22;7693;49.266;7.104;2023-04-25T20:37:42;8.80;99.90
15184;DHT22;7693;49.266;7.104;2023-04-25T20:40:08;8.80;99.90
15184;DHT22;7693;49.266;7.104;2023-04-25T20:42:34;8.70;99.90
15184;DHT22;7693;49.266;7.104;2023-04-25T20:45:00;8.70;99.90
15184;DHT22;7693;49.266;7.104;2023-04-25T20:47:26;8.60;99.90
15184;DHT22;7693;49.266;7.104;2023-04-25T20:49:53;8.60;99.90
15184;DHT22;7693;49.266;7.104;2023-04-25T20:52:19;8.50;99.90
15184;DHT22;7693;49.266;7.104;2023-04-25T20:54:44;8.40;99.90
15184;DHT22;7693;49.266;7.104;2023-04-25T20:57:15;8.40;99.90
15184;DHT22;7693;49.266;7.104;2023-04-25T20:59:41;8.40;99.90
15184;DHT22;7693;49.266;7.104;2023-04-25T21:02:08;8.30;99.90
15184;DHT22;7693;49.266;7.104;2023-04-25T21:04:36;8.30;99.90
15184;DHT22;7693;49.266;7.104;2023-04-25T21:07:02;8.20;99.90
15184;DHT22;7693;49.266;7.104;2023-04-25T21:09:27;8.10;99.90
15184;DHT22;7693;49.266;7.104;2023-04-25T21:11:53;8.10;99.90
15184;DHT22;7693;49.266;7.104;2023-04-25T21:14:18;8.00;99.90
15184;DHT22;7693;49.266;7.104;2023-04-25T21:16:44;7.90;99.90
15184;DHT22;7693;49.266;7.104;2023-04-25T21:19:10;7.80;99.90
15184;DHT22;7693;49.266;7.104;2023-04-25T21:21:36;7.80;99.90
15184;DHT22;7693;49.266;7.104;2023-04-25T21:24:01;7.70;99.90
15184;DHT22;7693;49.266;7.104;2023-04-25T21:26:27;7.60;99.90
15184;DHT22;7693;49.266;7.104;2023-04-25T21:28:52;7.50;99.90
15184;DHT22;7693;49.266;7.104;2023-04-25T21:31:18;7.40;99.90
15184;DHT22;7693;49.266;7.104;2023-04-25T21:33:44;7.30;99.90
15184;DHT22;7693;49.266;7.104;2023-04-25T21:36:10;7.30;99.90
15184;DHT22;7693;49.266;7.104;2023-04-25T21:38:35;7.20;99.90
15184;DHT22;7693;49.266;7.104;2023-04-25T21:41:01;7.20;99.90
15184;DHT22;7693;49.266;7.104;2023-04-25T21:43:26;7.10;99.90
15184;DHT22;7693;49.266;7.104;2023-04-25T21:45:53;7.00;99.90
15184;DHT22;7693;49.266;7.104;2023-04-25T21:48:18;7.00;99.90
15184;DHT22;7693;49.266;7.104;2023-04-25T21:50:44;7.00;99.90
15184;DHT22;7693;49.266;7.104;2023-04-25T21:53:09;6.90;99.90
15184;DHT22;7693;49.266;7.104;2023-04-25T21:55:36;6.90;99.90
15184;DHT22;7693;49.266;7.104;2023-04-25T21:58:01;6.80;99.90
15184;DHT22;7693;49.266;7.104;2023-04-25T22:00:27;6.80;99.90
15184;DHT22;7693;49.266;7.104;2023-04-25T22:02:53;6.70;99.90
15184;DHT22;7693;49.266;7.104;2023-04-25T22:05:22;6.70;99.90
15184;DHT22;7693;49.266;7.104;2023-04-25T22:07:52;6.70;99.90
15184;DHT22;7693;49.266;7.104;2023-04-25T22:10:20;6.60;99.90
15184;DHT22;7693;49.266;7.104;2023-04-25T22:12:45;6.60;99.90
15184;DHT22;7693;49.266;7.104;2023-04-25T22:15:17;6.60;99.90
15184;DHT22;7693;49.266;7.104;2023-04-25T22:17:44;6.50;99.90
15184;DHT22;7693;49.266;7.104;2023-04-25T22:20:11;6.50;99.90
15184;DHT22;7693;49.266;7.104;2023-04-25T22:22:39;6.50;99.90
15184;DHT22;7693;49.266;7.104;2023-04-25T22:25:05;6.50;99.90
